sensor_id;sensor_type;location;lat;lon;timestamp;pressure;altitude;pressure_sealevel;temperature;humidity
56456;BME280;42354;53.218;6.564;2023-05-20T00:00:02;46954.44;;;-142.92;93.54
56456;BME280;42354;53.218;6.564;2023-05-20T00:02:28;46962.66;;;-142.92;93.70
56456;BME280;42354;53.218;6.564;2023-05-20T00:04:53;46929.81;;;-142.92;93.88
56456;BME280;42354;53.218;6.564;2023-05-20T00:07:18;46956.50;;;-142.92;93.98
56456;BME280;42354;53.218;6.564;2023-05-20T00:09:44;46968.81;;;-142.92;94.13
56456;BME280;42354;53.218;6.564;2023-05-20T00:12:10;46966.75;;;-142.92;94.30
56456;BME280;42354;53.218;6.564;2023-05-20T00:14:35;46938.03;;;-142.92;94.41
56456;BME280;42354;53.218;6.564;2023-05-20T00:17:00;46970.88;;;-142.92;94.58
56456;BME280;42354;53.218;6.564;2023-05-20T00:19:26;46964.72;;;-142.92;95.07
56456;BME280;42354;53.218;6.564;2023-05-20T00:21:51;46948.28;;;-142.92;95.07
56456;BME280;42354;53.218;6.564;2023-05-20T00:24:16;46950.34;;;-142.92;95.31
56456;BME280;42354;53.218;6.564;2023-05-20T00:26:42;46960.59;;;-142.92;95.23
56456;BME280;42354;53.218;6.564;2023-05-20T00:29:07;46974.97;;;-142.92;95.79
56456;BME280;42354;53.218;6.564;2023-05-20T00:31:32;46966.75;;;-142.92;96.02
56456;BME280;42354;53.218;6.564;2023-05-20T00:33:58;46981.13;;;-142.92;96.15
56456;BME280;42354;53.218;6.564;2023-05-20T00:36:23;46970.88;;;-142.92;96.47
56456;BME280;42354;53.218;6.564;2023-05-20T00:38:48;46952.41;;;-142.92;96.46
56456;BME280;42354;53.218;6.564;2023-05-20T00:41:14;46958.56;;;-142.92;96.69
56456;BME280;42354;53.218;6.564;2023-05-20T00:43:39;46958.56;;;-142.92;96.65
56456;BME280;42354;53.218;6.564;2023-05-20T00:46:05;46942.13;;;-142.92;96.72
56456;BME280;42354;53.218;6.564;2023-05-20T00:48:38;46960.59;;;-142.92;96.21
56456;BME280;42354;53.218;6.564;2023-05-20T00:51:05;46977.03;;;-142.92;96.52
56456;BME280;42354;53.218;6.564;2023-05-20T00:53:33;46952.41;;;-142.92;96.33
56456;BME280;42354;53.218;6.564;2023-05-20T00:56:00;46968.81;;;-142.92;96.55
56456;BME280;42354;53.218;6.564;2023-05-20T00:58:26;46964.72;;;-142.92;96.54
56456;BME280;42354;53.218;6.564;2023-05-20T01:00:51;46954.44;;;-142.92;96.59
56456;BME280;42354;53.218;6.564;2023-05-20T01:03:16;46966.75;;;-142.92;96.61
56456;BME280;42354;53.218;6.564;2023-05-20T01:05:42;46966.75;;;-142.92;96.56
56456;BME280;42354;53.218;6.564;2023-05-20T01:08:07;46966.75;;;-142.92;96.27
56456;BME280;42354;53.218;6.564;2023-05-20T01:10:34;46956.50;;;-142.92;96.50
56456;BME280;42354;53.218;6.564;2023-05-20T01:13:04;46958.56;;;-142.92;96.42
56456;BME280;42354;53.218;6.564;2023-05-20T01:15:33;46970.88;;;-142.92;96.45
56456;BME280;42354;53.218;6.564;2023-05-20T01:18:01;46960.59;;;-142.92;96.27
56456;BME280;42354;53.218;6.564;2023-05-20T01:20:30;46964.72;;;-142.92;96.34
56456;BME280;42354;53.218;6.564;2023-05-20T01:22:57;46958.56;;;-142.92;96.14
56456;BME280;42354;53.218;6.564;2023-05-20T01:25:24;46956.50;;;-142.92;96.13
56456;BME280;42354;53.218;6.564;2023-05-20T01:27:51;46960.59;;;-142.92;95.99
56456;BME280;42354;53.218;6.564;2023-05-20T01:30:19;46974.97;;;-142.92;95.93
56456;BME280;42354;53.218;6.564;2023-05-20T01:33:00;46970.88;;;-142.92;95.79
56456;BME280;42354;53.218;6.564;2023-05-20T01:35:27;46962.66;;;-142.92;95.76
56456;BME280;42354;53.218;6.564;2023-05-20T01:37:54;46962.66;;;-142.92;96.02
56456;BME280;42354;53.218;6.564;2023-05-20T01:40:22;46956.50;;;-142.92;95.99
56456;BME280;42354;53.218;6.564;2023-05-20T01:42:49;46958.56;;;-142.92;95.91
56456;BME280;42354;53.218;6.564;2023-05-20T01:45:17;46968.81;;;-142.92;96.07
56456;BME280;42354;53.218;6.564;2023-05-20T01:47:46;46946.25;;;-142.92;96.11
56456;BME280;42354;53.218;6.564;2023-05-20T01:50:11;46962.66;;;-142.92;96.24
56456;BME280;42354;53.218;6.564;2023-05-20T01:52:37;46974.97;;;-142.92;96.17
56456;BME280;42354;53.218;6.564;2023-05-20T01:55:02;46970.88;;;-142.92;96.24
56456;BME280;42354;53.218;6.564;2023-05-20T01:57:28;46964.72;;;-142.92;96.14
56456;BME280;42354;53.218;6.564;2023-05-20T01:59:53;46948.28;;;-142.92;96.16
56456;BME280;42354;53.218;6.564;2023-05-20T02:02:18;46968.81;;;-142.92;96.31
56456;BME280;42354;53.218;6.564;2023-05-20T02:04:45;46954.44;;;-142.92;96.52
56456;BME280;42354;53.218;6.564;2023-05-20T02:07:14;46946.25;;;-142.92;96.60
56456;BME280;42354;53.218;6.564;2023-05-20T02:09:40;46964.72;;;-142.92;96.78
56456;BME280;42354;53.218;6.564;2023-05-20T02:12:07;46960.59;;;-142.92;96.91
56456;BME280;42354;53.218;6.564;2023-05-20T02:14:32;46972.91;;;-142.92;96.87
56456;BME280;42354;53.218;6.564;2023-05-20T02:16:57;46954.44;;;-142.92;97.16
56456;BME280;42354;53.218;6.564;2023-05-20T02:19:23;46962.66;;;-142.92;97.22
56456;BME280;42354;53.218;6.564;2023-05-20T02:21:49;46956.50;;;-142.92;97.07
56456;BME280;42354;53.218;6.564;2023-05-20T02:24:15;46964.72;;;-142.92;97.11
56456;BME280;42354;53.218;6.564;2023-05-20T02:26:40;46966.75;;;-142.92;97.14
56456;BME280;42354;53.218;6.564;2023-05-20T02:29:06;46964.72;;;-142.92;97.31
56456;BME280;42354;53.218;6.564;2023-05-20T02:31:31;46944.19;;;-142.92;97.19
56456;BME280;42354;53.218;6.564;2023-05-20T02:33:57;46952.41;;;-142.92;97.27
56456;BME280;42354;53.218;6.564;2023-05-20T02:36:22;46966.75;;;-142.92;97.31
56456;BME280;42354;53.218;6.564;2023-05-20T02:38:48;46966.75;;;-142.92;97.33
56456;BME280;42354;53.218;6.564;2023-05-20T02:41:13;46958.56;;;-142.92;97.05
56456;BME280;42354;53.218;6.564;2023-05-20T02:43:38;46968.81;;;-142.92;97.04
56456;BME280;42354;53.218;6.564;2023-05-20T02:46:05;46952.41;;;-142.92;97.12
56456;BME280;42354;53.218;6.564;2023-05-20T02:48:30;46952.41;;;-142.92;96.79
56456;BME280;42354;53.218;6.564;2023-05-20T02:50:57;46970.88;;;-142.92;96.57
56456;BME280;42354;53.218;6.564;2023-05-20T02:53:23;46972.91;;;-142.92;96.52
56456;BME280;42354;53.218;6.564;2023-05-20T02:55:48;46958.56;;;-142.92;96.45
56456;BME280;42354;53.218;6.564;2023-05-20T02:58:14;46962.66;;;-142.92;96.36
56456;BME280;42354;53.218;6.564;2023-05-20T03:00:39;46954.44;;;-142.92;96.06
56456;BME280;42354;53.218;6.564;2023-05-20T03:03:06;46968.81;;;-142.92;95.90
56456;BME280;42354;53.218;6.564;2023-05-20T03:05:37;46974.97;;;-142.92;95.62
56456;BME280;42354;53.218;6.564;2023-05-20T03:08:07;46952.41;;;-142.92;95.27
56456;BME280;42354;53.218;6.564;2023-05-20T03:10:34;46954.44;;;-142.92;95.17
56456;BME280;42354;53.218;6.564;2023-05-20T03:13:00;46972.91;;;-142.92;94.96
56456;BME280;42354;53.218;6.564;2023-05-20T03:15:25;46946.25;;;-142.92;94.64
56456;BME280;42354;53.218;6.564;2023-05-20T03:17:50;46970.88;;;-142.92;94.48
56456;BME280;42354;53.218;6.564;2023-05-20T03:20:16;46977.03;;;-142.92;94.22
56456;BME280;42354;53.218;6.564;2023-05-20T03:22:41;46970.88;;;-142.92;94.32
56456;BME280;42354;53.218;6.564;2023-05-20T03:25:07;46970.88;;;-142.92;94.13
56456;BME280;42354;53.218;6.564;2023-05-20T03:27:33;46946.25;;;-142.92;94.09
56456;BME280;42354;53.218;6.564;2023-05-20T03:30:01;46972.91;;;-142.92;94.04
56456;BME280;42354;53.218;6.564;2023-05-20T03:32:27;46962.66;;;-142.92;93.87
56456;BME280;42354;53.218;6.564;2023-05-20T03:34:52;46958.56;;;-142.92;93.81
56456;BME280;42354;53.218;6.564;2023-05-20T03:37:18;46962.66;;;-142.92;93.78
56456;BME280;42354;53.218;6.564;2023-05-20T03:39:44;46974.97;;;-142.92;93.74
56456;BME280;42354;53.218;6.564;2023-05-20T03:42:09;46946.25;;;-142.92;93.65
56456;BME280;42354;53.218;6.564;2023-05-20T03:44:35;46981.13;;;-142.92;93.62
56456;BME280;42354;53.218;6.564;2023-05-20T03:47:00;46950.34;;;-142.92;93.32
56456;BME280;42354;53.218;6.564;2023-05-20T03:49:26;46974.97;;;-142.92;92.99
56456;BME280;42354;53.218;6.564;2023-05-20T03:51:51;46960.59;;;-142.92;92.61
56456;BME280;42354;53.218;6.564;2023-05-20T03:54:16;46960.59;;;-142.92;92.52
56456;BME280;42354;53.218;6.564;2023-05-20T03:56:42;46970.88;;;-142.92;92.26
56456;BME280;42354;53.218;6.564;2023-05-20T03:59:07;46974.97;;;-142.92;91.89
56456;BME280;42354;53.218;6.564;2023-05-20T04:01:34;46962.66;;;-142.92;91.40
56456;BME280;42354;53.218;6.564;2023-05-20T04:03:59;46970.88;;;-142.92;91.11
56456;BME280;42354;53.218;6.564;2023-05-20T04:06:24;46962.66;;;-142.92;90.71
56456;BME280;42354;53.218;6.564;2023-05-20T04:08:50;46954.44;;;-142.92;90.42
56456;BME280;42354;53.218;6.564;2023-05-20T04:11:17;46977.03;;;-142.92;90.05
56456;BME280;42354;53.218;6.564;2023-05-20T04:13:42;46962.66;;;-142.92;89.77
56456;BME280;42354;53.218;6.564;2023-05-20T04:16:07;46972.91;;;-142.92;89.40
56456;BME280;42354;53.218;6.564;2023-05-20T04:18:33;46972.91;;;-142.92;88.91
56456;BME280;42354;53.218;6.564;2023-05-20T04:21:03;46956.50;;;-142.92;88.64
56456;BME280;42354;53.218;6.564;2023-05-20T04:23:28;46981.13;;;-142.92;88.30
56456;BME280;42354;53.218;6.564;2023-05-20T04:25:54;46985.22;;;-142.92;88.02
56456;BME280;42354;53.218;6.564;2023-05-20T04:28:19;46983.19;;;-142.92;87.81
56456;BME280;42354;53.218;6.564;2023-05-20T04:30:48;46966.75;;;-142.92;87.41
56456;BME280;42354;53.218;6.564;2023-05-20T04:33:14;46970.88;;;-142.92;87.16
56456;BME280;42354;53.218;6.564;2023-05-20T04:35:40;46968.81;;;-142.92;86.69
56456;BME280;42354;53.218;6.564;2023-05-20T04:38:06;46972.91;;;-142.92;86.36
56456;BME280;42354;53.218;6.564;2023-05-20T04:40:32;46974.97;;;-142.92;86.07
56456;BME280;42354;53.218;6.564;2023-05-20T04:43:01;46964.72;;;-142.92;85.37
56456;BME280;42354;53.218;6.564;2023-05-20T04:45:28;46962.66;;;-142.92;85.13
56456;BME280;42354;53.218;6.564;2023-05-20T04:47:53;46956.50;;;-142.92;84.62
56456;BME280;42354;53.218;6.564;2023-05-20T04:50:19;46981.13;;;-142.92;84.02
56456;BME280;42354;53.218;6.564;2023-05-20T04:52:45;46970.88;;;-142.92;83.41
56456;BME280;42354;53.218;6.564;2023-05-20T04:55:11;46981.13;;;-142.92;82.81
56456;BME280;42354;53.218;6.564;2023-05-20T04:57:38;46977.03;;;-142.92;82.17
56456;BME280;42354;53.218;6.564;2023-05-20T05:00:09;46977.03;;;-142.92;81.38
56456;BME280;42354;53.218;6.564;2023-05-20T05:02:35;46979.06;;;-142.92;80.88
56456;BME280;42354;53.218;6.564;2023-05-20T05:05:01;46991.38;;;-142.92;80.25
56456;BME280;42354;53.218;6.564;2023-05-20T05:07:26;46964.72;;;-142.92;79.32
56456;BME280;42354;53.218;6.564;2023-05-20T05:09:51;46974.97;;;-142.92;78.86
56456;BME280;42354;53.218;6.564;2023-05-20T05:12:17;46985.22;;;-142.92;78.44
56456;BME280;42354;53.218;6.564;2023-05-20T05:14:42;46972.91;;;-142.92;77.83
56456;BME280;42354;53.218;6.564;2023-05-20T05:17:08;46962.66;;;-142.92;77.14
56456;BME280;42354;53.218;6.564;2023-05-20T05:19:33;46981.13;;;-142.92;76.63
56456;BME280;42354;53.218;6.564;2023-05-20T05:21:58;46985.22;;;-142.92;76.35
56456;BME280;42354;53.218;6.564;2023-05-20T05:24:24;46970.88;;;-142.92;75.84
56456;BME280;42354;53.218;6.564;2023-05-20T05:26:53;46970.88;;;-142.92;74.94
56456;BME280;42354;53.218;6.564;2023-05-20T05:29:18;46968.81;;;-142.92;74.75
56456;BME280;42354;53.218;6.564;2023-05-20T05:31:43;46987.28;;;-142.92;73.79
56456;BME280;42354;53.218;6.564;2023-05-20T05:34:09;46991.38;;;-142.92;72.47
56456;BME280;42354;53.218;6.564;2023-05-20T05:36:34;46958.56;;;-142.92;71.46
56456;BME280;42354;53.218;6.564;2023-05-20T05:39:00;46974.97;;;-142.92;70.44
56456;BME280;42354;53.218;6.564;2023-05-20T05:41:25;46970.88;;;-142.92;69.53
56456;BME280;42354;53.218;6.564;2023-05-20T05:43:51;46970.88;;;-142.92;68.51
56456;BME280;42354;53.218;6.564;2023-05-20T05:46:16;46970.88;;;-142.92;67.74
56456;BME280;42354;53.218;6.564;2023-05-20T05:48:42;46970.88;;;-142.92;67.15
56456;BME280;42354;53.218;6.564;2023-05-20T05:51:13;46981.13;;;-142.92;66.27
56456;BME280;42354;53.218;6.564;2023-05-20T05:53:39;46974.97;;;-142.92;64.96
56456;BME280;42354;53.218;6.564;2023-05-20T05:56:05;46960.59;;;-142.92;63.63
56456;BME280;42354;53.218;6.564;2023-05-20T05:58:31;46987.28;;;-142.92;62.80
56456;BME280;42354;53.218;6.564;2023-05-20T06:00:57;46968.81;;;-142.92;62.08
56456;BME280;42354;53.218;6.564;2023-05-20T06:03:22;46977.03;;;-142.92;61.62
56456;BME280;42354;53.218;6.564;2023-05-20T06:05:48;46964.72;;;-142.92;60.79
56456;BME280;42354;53.218;6.564;2023-05-20T06:08:13;46974.97;;;-142.92;60.20
56456;BME280;42354;53.218;6.564;2023-05-20T06:10:39;46983.19;;;-142.92;59.43
56456;BME280;42354;53.218;6.564;2023-05-20T06:13:04;46968.81;;;-142.92;58.33
56456;BME280;42354;53.218;6.564;2023-05-20T06:15:30;46956.50;;;-142.92;57.78
56456;BME280;42354;53.218;6.564;2023-05-20T06:17:55;46964.72;;;-142.92;57.16
56456;BME280;42354;53.218;6.564;2023-05-20T06:20:20;46960.59;;;-142.92;56.69
56456;BME280;42354;53.218;6.564;2023-05-20T06:22:46;46989.34;;;-142.92;56.23
56456;BME280;42354;53.218;6.564;2023-05-20T06:25:12;46972.91;;;-142.92;55.45
56456;BME280;42354;53.218;6.564;2023-05-20T06:27:38;46977.03;;;-142.92;54.19
56456;BME280;42354;53.218;6.564;2023-05-20T06:30:04;46962.66;;;-142.92;52.84
56456;BME280;42354;53.218;6.564;2023-05-20T06:32:30;46983.19;;;-142.92;52.23
56456;BME280;42354;53.218;6.564;2023-05-20T06:34:55;46987.28;;;-142.92;51.58
56456;BME280;42354;53.218;6.564;2023-05-20T06:37:20;46950.34;;;-142.92;51.10
56456;BME280;42354;53.218;6.564;2023-05-20T06:39:48;46960.59;;;-142.92;51.58
56456;BME280;42354;53.218;6.564;2023-05-20T06:42:18;46977.03;;;-142.92;51.28
56456;BME280;42354;53.218;6.564;2023-05-20T06:44:43;46999.59;;;-142.92;51.42
56456;BME280;42354;53.218;6.564;2023-05-20T06:47:09;46962.66;;;-142.92;51.63
56456;BME280;42354;53.218;6.564;2023-05-20T06:49:34;46974.97;;;-142.92;51.40
56456;BME280;42354;53.218;6.564;2023-05-20T06:51:59;46987.28;;;-142.92;51.00
56456;BME280;42354;53.218;6.564;2023-05-20T06:54:25;46974.97;;;-142.92;50.77
56456;BME280;42354;53.218;6.564;2023-05-20T06:56:50;46970.88;;;-142.92;50.10
56456;BME280;42354;53.218;6.564;2023-05-20T06:59:16;46974.97;;;-142.92;49.81
56456;BME280;42354;53.218;6.564;2023-05-20T07:01:41;46977.03;;;-142.92;49.06
56456;BME280;42354;53.218;6.564;2023-05-20T07:04:07;46983.19;;;-142.92;48.84
56456;BME280;42354;53.218;6.564;2023-05-20T07:06:32;46964.72;;;-142.92;47.98
56456;BME280;42354;53.218;6.564;2023-05-20T07:08:57;46966.75;;;-142.92;47.54
56456;BME280;42354;53.218;6.564;2023-05-20T07:11:24;46966.75;;;-142.92;47.05
56456;BME280;42354;53.218;6.564;2023-05-20T07:13:49;46977.03;;;-142.92;46.93
56456;BME280;42354;53.218;6.564;2023-05-20T07:16:15;46968.81;;;-142.92;46.69
56456;BME280;42354;53.218;6.564;2023-05-20T07:18:40;46972.91;;;-142.92;46.80
56456;BME280;42354;53.218;6.564;2023-05-20T07:21:06;46977.03;;;-142.92;46.56
56456;BME280;42354;53.218;6.564;2023-05-20T07:23:31;46968.81;;;-142.92;46.84
56456;BME280;42354;53.218;6.564;2023-05-20T07:25:56;46987.28;;;-142.92;46.31
56456;BME280;42354;53.218;6.564;2023-05-20T07:28:22;46958.56;;;-142.92;46.46
56456;BME280;42354;53.218;6.564;2023-05-20T07:30:47;46983.19;;;-142.92;46.33
56456;BME280;42354;53.218;6.564;2023-05-20T07:33:17;46966.75;;;-142.92;45.41
56456;BME280;42354;53.218;6.564;2023-05-20T07:35:43;46968.81;;;-142.92;45.38
56456;BME280;42354;53.218;6.564;2023-05-20T07:38:10;46970.88;;;-142.92;45.42
56456;BME280;42354;53.218;6.564;2023-05-20T07:40:36;46977.03;;;-142.92;45.35
56456;BME280;42354;53.218;6.564;2023-05-20T07:43:05;46954.44;;;-142.92;45.17
56456;BME280;42354;53.218;6.564;2023-05-20T07:45:33;46966.75;;;-142.92;45.20
56456;BME280;42354;53.218;6.564;2023-05-20T07:47:58;46974.97;;;-142.92;45.23
56456;BME280;42354;53.218;6.564;2023-05-20T07:50:24;46979.06;;;-142.92;45.28
56456;BME280;42354;53.218;6.564;2023-05-20T07:52:49;46981.13;;;-142.92;45.04
56456;BME280;42354;53.218;6.564;2023-05-20T07:55:15;46974.97;;;-142.92;44.75
56456;BME280;42354;53.218;6.564;2023-05-20T07:57:42;46983.19;;;-142.92;44.35
56456;BME280;42354;53.218;6.564;2023-05-20T08:00:08;46974.97;;;-142.92;43.86
56456;BME280;42354;53.218;6.564;2023-05-20T08:02:36;46979.06;;;-142.92;43.73
56456;BME280;42354;53.218;6.564;2023-05-20T08:05:01;46983.19;;;-142.92;42.98
56456;BME280;42354;53.218;6.564;2023-05-20T08:07:26;46987.28;;;-142.92;42.66
56456;BME280;42354;53.218;6.564;2023-05-20T08:09:52;46962.66;;;-142.92;42.59
56456;BME280;42354;53.218;6.564;2023-05-20T08:12:17;46981.13;;;-142.92;42.17
56456;BME280;42354;53.218;6.564;2023-05-20T08:14:43;46958.56;;;-142.92;42.00
56456;BME280;42354;53.218;6.564;2023-05-20T08:17:09;46977.03;;;-142.92;41.68
56456;BME280;42354;53.218;6.564;2023-05-20T08:19:34;46981.13;;;-142.92;41.58
56456;BME280;42354;53.218;6.564;2023-05-20T08:21:59;46974.97;;;-142.92;41.49
56456;BME280;42354;53.218;6.564;2023-05-20T08:24:25;46989.34;;;-142.92;41.17
56456;BME280;42354;53.218;6.564;2023-05-20T08:26:51;46966.75;;;-142.92;40.66
56456;BME280;42354;53.218;6.564;2023-05-20T08:29:16;46987.28;;;-142.92;40.30
56456;BME280;42354;53.218;6.564;2023-05-20T08:31:41;46964.72;;;-142.92;40.44
56456;BME280;42354;53.218;6.564;2023-05-20T08:34:07;46968.81;;;-142.92;40.40
56456;BME280;42354;53.218;6.564;2023-05-20T08:36:33;46974.97;;;-142.92;40.65
56456;BME280;42354;53.218;6.564;2023-05-20T08:38:58;46972.91;;;-142.92;40.23
56456;BME280;42354;53.218;6.564;2023-05-20T08:41:24;46985.22;;;-142.92;39.72
56456;BME280;42354;53.218;6.564;2023-05-20T08:43:51;46964.72;;;-142.92;39.58
56456;BME280;42354;53.218;6.564;2023-05-20T08:46:17;46974.97;;;-142.92;39.01
56456;BME280;42354;53.218;6.564;2023-05-20T08:48:43;46972.91;;;-142.92;39.15
56456;BME280;42354;53.218;6.564;2023-05-20T08:51:09;46966.75;;;-142.92;39.16
56456;BME280;42354;53.218;6.564;2023-05-20T08:53:35;46970.88;;;-142.92;38.73
56456;BME280;42354;53.218;6.564;2023-05-20T08:56:01;46981.13;;;-142.92;38.48
56456;BME280;42354;53.218;6.564;2023-05-20T08:58:30;46968.81;;;-142.92;38.41
56456;BME280;42354;53.218;6.564;2023-05-20T09:00:57;46970.88;;;-142.92;38.52
56456;BME280;42354;53.218;6.564;2023-05-20T09:03:25;46962.66;;;-142.92;38.82
56456;BME280;42354;53.218;6.564;2023-05-20T09:05:52;46979.06;;;-142.92;38.80
56456;BME280;42354;53.218;6.564;2023-05-20T09:08:19;46972.91;;;-142.92;38.76
56456;BME280;42354;53.218;6.564;2023-05-20T09:10:51;46968.81;;;-142.92;38.90
56456;BME280;42354;53.218;6.564;2023-05-20T09:13:16;46968.81;;;-142.92;38.66
56456;BME280;42354;53.218;6.564;2023-05-20T09:15:42;46974.97;;;-142.92;38.37
56456;BME280;42354;53.218;6.564;2023-05-20T09:18:07;46966.75;;;-142.92;38.19
56456;BME280;42354;53.218;6.564;2023-05-20T09:20:34;46966.75;;;-142.92;37.75
56456;BME280;42354;53.218;6.564;2023-05-20T09:23:03;46987.28;;;-142.92;37.20
56456;BME280;42354;53.218;6.564;2023-05-20T09:25:29;46979.06;;;-142.92;37.05
56456;BME280;42354;53.218;6.564;2023-05-20T09:27:54;46981.13;;;-142.92;36.46
56456;BME280;42354;53.218;6.564;2023-05-20T09:30:20;46968.81;;;-142.92;36.42
56456;BME280;42354;53.218;6.564;2023-05-20T09:32:55;46972.91;;;-142.92;36.67
56456;BME280;42354;53.218;6.564;2023-05-20T09:35:22;46981.13;;;-142.92;36.33
56456;BME280;42354;53.218;6.564;2023-05-20T09:37:54;46970.88;;;-142.92;36.34
56456;BME280;42354;53.218;6.564;2023-05-20T09:40:27;46985.22;;;-142.92;36.29
56456;BME280;42354;53.218;6.564;2023-05-20T09:43:01;46962.66;;;-142.92;36.07
56456;BME280;42354;53.218;6.564;2023-05-20T09:45:27;46981.13;;;-142.92;36.01
56456;BME280;42354;53.218;6.564;2023-05-20T09:47:53;46979.06;;;-142.92;35.84
56456;BME280;42354;53.218;6.564;2023-05-20T09:50:20;46962.66;;;-142.92;36.05
56456;BME280;42354;53.218;6.564;2023-05-20T09:52:48;46977.03;;;-142.92;35.56
56456;BME280;42354;53.218;6.564;2023-05-20T09:55:16;46966.75;;;-142.92;35.37
56456;BME280;42354;53.218;6.564;2023-05-20T09:57:42;46964.72;;;-142.92;35.77
56456;BME280;42354;53.218;6.564;2023-05-20T10:00:07;46979.06;;;-142.92;35.85
56456;BME280;42354;53.218;6.564;2023-05-20T10:02:34;46970.88;;;-142.92;35.35
56456;BME280;42354;53.218;6.564;2023-05-20T10:05:04;46970.88;;;-142.92;35.43
56456;BME280;42354;53.218;6.564;2023-05-20T10:10:38;46966.75;;;-142.92;35.30
56456;BME280;42354;53.218;6.564;2023-05-20T10:13:24;46964.72;;;-142.92;35.35
56456;BME280;42354;53.218;6.564;2023-05-20T10:16:33;46970.88;;;-142.92;35.24
56456;BME280;42354;53.218;6.564;2023-05-20T10:19:30;46966.75;;;-142.92;35.34
56456;BME280;42354;53.218;6.564;2023-05-20T10:22:07;46972.91;;;-142.92;35.16
56456;BME280;42354;53.218;6.564;2023-05-20T10:24:38;46972.91;;;-142.92;35.41
56456;BME280;42354;53.218;6.564;2023-05-20T10:27:12;46970.88;;;-142.92;35.06
56456;BME280;42354;53.218;6.564;2023-05-20T10:29:43;46954.44;;;-142.92;35.15
56456;BME280;42354;53.218;6.564;2023-05-20T10:32:09;46960.59;;;-142.92;34.83
56456;BME280;42354;53.218;6.564;2023-05-20T10:34:48;46958.56;;;-142.92;35.17
56456;BME280;42354;53.218;6.564;2023-05-20T10:37:26;46966.75;;;-142.92;35.61
56456;BME280;42354;53.218;6.564;2023-05-20T10:40:02;46970.88;;;-142.92;36.20
56456;BME280;42354;53.218;6.564;2023-05-20T10:42:28;46962.66;;;-142.92;37.32
56456;BME280;42354;53.218;6.564;2023-05-20T10:44:54;46966.75;;;-142.92;38.00
56456;BME280;42354;53.218;6.564;2023-05-20T10:47:19;46964.72;;;-142.92;38.12
56456;BME280;42354;53.218;6.564;2023-05-20T10:49:45;46970.88;;;-142.92;38.20
56456;BME280;42354;53.218;6.564;2023-05-20T10:52:17;46970.88;;;-142.92;38.47
56456;BME280;42354;53.218;6.564;2023-05-20T10:57:10;46974.97;;;-142.92;39.27
56456;BME280;42354;53.218;6.564;2023-05-20T10:59:36;46966.75;;;-142.92;39.59
56456;BME280;42354;53.218;6.564;2023-05-20T11:02:02;46968.81;;;-142.92;40.10
56456;BME280;42354;53.218;6.564;2023-05-20T11:04:29;46977.03;;;-142.92;40.37
56456;BME280;42354;53.218;6.564;2023-05-20T11:06:54;46964.72;;;-142.92;40.44
56456;BME280;42354;53.218;6.564;2023-05-20T11:09:21;46970.88;;;-142.92;40.83
56456;BME280;42354;53.218;6.564;2023-05-20T11:11:47;46954.44;;;-142.92;41.42
56456;BME280;42354;53.218;6.564;2023-05-20T11:14:13;46979.06;;;-142.92;41.79
56456;BME280;42354;53.218;6.564;2023-05-20T11:16:41;46970.88;;;-142.92;42.18
56456;BME280;42354;53.218;6.564;2023-05-20T11:19:07;46954.44;;;-142.92;41.89
56456;BME280;42354;53.218;6.564;2023-05-20T11:21:33;46974.97;;;-142.92;41.52
56456;BME280;42354;53.218;6.564;2023-05-20T11:23:58;46974.97;;;-142.92;41.08
56456;BME280;42354;53.218;6.564;2023-05-20T11:26:24;46958.56;;;-142.92;40.88
56456;BME280;42354;53.218;6.564;2023-05-20T11:28:50;46958.56;;;-142.92;40.87
56456;BME280;42354;53.218;6.564;2023-05-20T11:31:17;46970.88;;;-142.92;40.90
56456;BME280;42354;53.218;6.564;2023-05-20T11:33:42;46962.66;;;-142.92;41.80
56456;BME280;42354;53.218;6.564;2023-05-20T11:36:08;46974.97;;;-142.92;42.00
56456;BME280;42354;53.218;6.564;2023-05-20T11:38:35;46977.03;;;-142.92;41.19
56456;BME280;42354;53.218;6.564;2023-05-20T11:41:00;46968.81;;;-142.92;40.50
56456;BME280;42354;53.218;6.564;2023-05-20T11:43:25;46972.91;;;-142.92;40.03
56456;BME280;42354;53.218;6.564;2023-05-20T11:45:53;46970.88;;;-142.92;40.22
56456;BME280;42354;53.218;6.564;2023-05-20T11:48:20;46966.75;;;-142.92;39.96
56456;BME280;42354;53.218;6.564;2023-05-20T11:50:47;46977.03;;;-142.92;40.55
56456;BME280;42354;53.218;6.564;2023-05-20T11:53:20;46983.19;;;-142.92;40.85
56456;BME280;42354;53.218;6.564;2023-05-20T11:58:26;46974.97;;;-142.92;40.09
56456;BME280;42354;53.218;6.564;2023-05-20T12:00:51;46958.56;;;-142.92;40.44
56456;BME280;42354;53.218;6.564;2023-05-20T12:03:17;46970.88;;;-142.92;41.23
56456;BME280;42354;53.218;6.564;2023-05-20T12:05:43;46970.88;;;-142.92;41.61
56456;BME280;42354;53.218;6.564;2023-05-20T12:08:09;46972.91;;;-142.92;42.29
56456;BME280;42354;53.218;6.564;2023-05-20T12:10:35;46960.59;;;-142.92;42.40
56456;BME280;42354;53.218;6.564;2023-05-20T12:13:03;46977.03;;;-142.92;41.98
56456;BME280;42354;53.218;6.564;2023-05-20T12:15:33;46958.56;;;-142.92;40.91
56456;BME280;42354;53.218;6.564;2023-05-20T12:17:58;46983.19;;;-142.92;39.35
56456;BME280;42354;53.218;6.564;2023-05-20T12:20:24;46972.91;;;-142.92;38.58
56456;BME280;42354;53.218;6.564;2023-05-20T12:22:50;46962.66;;;-142.92;38.78
56456;BME280;42354;53.218;6.564;2023-05-20T12:25:17;46960.59;;;-142.92;39.23
56456;BME280;42354;53.218;6.564;2023-05-20T12:27:44;46962.66;;;-142.92;39.52
56456;BME280;42354;53.218;6.564;2023-05-20T12:30:18;46952.41;;;-142.92;39.82
56456;BME280;42354;53.218;6.564;2023-05-20T12:32:52;46964.72;;;-142.92;40.80
56456;BME280;42354;53.218;6.564;2023-05-20T12:35:37;46964.72;;;-142.92;41.91
56456;BME280;42354;53.218;6.564;2023-05-20T12:38:03;46958.56;;;-142.92;43.25
56456;BME280;42354;53.218;6.564;2023-05-20T12:40:29;46966.75;;;-142.92;43.90
56456;BME280;42354;53.218;6.564;2023-05-20T12:42:54;46966.75;;;-142.92;44.22
56456;BME280;42354;53.218;6.564;2023-05-20T12:45:21;46958.56;;;-142.92;43.88